Douglas B.gurian — WDH7352 — position and weather

sailwx.info

Track history (hours):
 
Tides and Currents Weather Stations Pressure Air Temp Water Temp Dewpoint Dewpoint Depression Visibility Wind Speed Wind Dir Waves Ship Positions

Douglas B.gurian

Owner: Port Imperial Ferry Corporation, Weehawken, NJ. More information available from US FCC via Universal Licensing System and Coast Guard Vessel Documentation Center.

Last reported at 2018-Sep-19 13:03 UTC. Time now 2018-Sep-19 13:06 UTC.
Position N 40°43' W 074°02'.

Length 21 m; draft 2 m.

Type: Passenger vessel. MMSI: 366834170.

Date/timePositionNaut miles runAvg speedWind from/ knotsBaromVisibWave heightAir tempDewpointWater temp
2018-Sep-19 13:03N 40°43' W 074°02'0 9.7
2018-Sep-19 13:00N 40°43' W 074°03'0 0.0
2018-Sep-19 12:31N 40°43' W 074°03'0 1.0
2018-Sep-19 12:04N 40°43' W 074°02'0 9.6
2018-Sep-19 12:01N 40°43' W 074°03'0 0.0
2018-Sep-19 11:30N 40°43' W 074°03'0 1.0
2018-Sep-19 11:03N 40°43' W 074°02'0 9.1
2018-Sep-19 11:01N 40°43' W 074°03'0 0.0
2018-Sep-19 10:30N 40°43' W 074°03'0 0.6
2018-Sep-19 10:03N 40°43' W 074°02'0 5.4
2018-Sep-19 10:00N 40°43' W 074°03'0 0.0
2018-Sep-19 09:30N 40°43' W 074°03'0 0.0
2018-Sep-19 00:04N 40°43' W 074°03'0 0.0
2018-Sep-19 00:00N 40°43' W 074°03'0 0.1
2018-Sep-18 23:30N 40°43' W 074°03'0 1.1
2018-Sep-18 23:03N 40°43' W 074°02'0 0.7
2018-Sep-18 23:01N 40°43' W 074°02'1 1.1
2018-Sep-18 22:30N 40°43' W 074°03'1 1.2
2018-Sep-18 22:04N 40°43' W 074°02'1 8.6
2018-Sep-18 22:00N 40°43' W 074°03'0 0.4
2018-Sep-18 21:30N 40°43' W 074°02'0 0.8
2018-Sep-18 21:04N 40°43' W 074°02'110.0
2018-Sep-18 21:00N 40°43' W 074°03'4 7.4
2018-Sep-18 20:29N 40°46' W 074°01'0 0.0
2018-Sep-18 20:03N 40°46' W 074°01'0 0.1
2018-Sep-18 20:00N 40°46' W 074°01'0 0.0
2018-Sep-18 14:32N 40°46' W 074°01'0 0.0
2018-Sep-18 14:03N 40°46' W 074°01'0 6.2
2018-Sep-18 14:00N 40°46' W 074°01'4 7.3
2018-Sep-18 13:30N 40°43' W 074°03'1 2.8
2018-Sep-18 13:04N 40°42' W 074°01'112.3
2018-Sep-18 13:01N 40°42' W 074°00'0 0.1
2018-Sep-18 12:30N 40°42' W 074°00'1 1.9
2018-Sep-18 12:04N 40°42' W 074°01'116.0
2018-Sep-18 12:00N 40°42' W 074°00'0 0.0
2018-Sep-18 11:31N 40°42' W 074°00'1 2.9
2018-Sep-18 11:04N 40°43' W 074°02'127.8
2018-Sep-18 11:01N 40°44' W 074°01'2 4.8
2018-Sep-18 10:30N 40°46' W 074°01'0 0.0
2018-Sep-17 14:04N 40°46' W 074°01'117.3
2018-Sep-17 14:00N 40°45' W 074°01'3 5.9
2018-Sep-17 13:31N 40°43' W 074°03'2 3.9
2018-Sep-17 13:03N 40°42' W 074°00'0 2.1
2018-Sep-17 13:01N 40°42' W 074°00'0 0.2
2018-Sep-17 12:31N 40°42' W 074°00'1 1.4
2018-Sep-17 12:03N 40°42' W 074°01'112.6
2018-Sep-17 12:01N 40°42' W 074°00'0 0.0
2018-Sep-17 11:30N 40°42' W 074°00'4 9.0
2018-Sep-17 11:03N 40°46' W 074°01'0 0.5
2018-Sep-17 11:00N 40°46' W 074°01'0 0.0
2018-Sep-17 10:28N 40°46' W 074°01'0 0.0
2018-Sep-17 10:04N 40°46' W 074°01'0 0.0
2018-Sep-17 10:00N 40°46' W 074°01'0 0.0
2018-Sep-17 09:30N 40°46' W 074°01'0 0.0
2018-Sep-17 09:03N 40°46' W 074°01'0 0.0
2018-Sep-17 09:00N 40°46' W 074°01'0 0.0
2018-Sep-16 18:26N 40°46' W 074°01'411.1
2018-Sep-16 18:03N 40°42' W 074°00'0 0.6
2018-Sep-16 18:00N 40°42' W 074°00'4 8.4
2018-Sep-16 17:31N 40°46' W 074°01'0 0.0
2018-Sep-16 17:01N 40°46' W 074°01'0 0.0
2018-Sep-16 17:00N 40°46' W 074°01'0 0.0
2018-Sep-15 18:24N 40°46' W 074°01'412.3
2018-Sep-15 18:04N 40°42' W 074°00'0 1.5
2018-Sep-15 18:01N 40°42' W 074°00'4 7.8
2018-Sep-15 17:28N 40°46' W 074°01'0 0.0
2018-Sep-15 17:03N 40°46' W 074°01'0 0.0
2018-Sep-15 17:00N 40°46' W 074°01'0 0.0
2018-Sep-15 16:30N 40°46' W 074°01'0 0.0
2018-Sep-15 16:03N 40°46' W 074°01'0 0.0
2018-Sep-15 16:00N 40°46' W 074°01'0 0.0
2018-Sep-15 15:30N 40°46' W 074°01'0 0.0
2018-Sep-15 15:03N 40°46' W 074°01'0 0.0
2018-Sep-15 14:30N 40°46' W 074°01'0 0.0
2018-Sep-15 14:00N 40°46' W 074°01'0 0.0
2018-Sep-15 13:29N 40°46' W 074°01'0 0.0
2018-Sep-15 13:03N 40°46' W 074°01'0 0.1
2018-Sep-15 13:00N 40°46' W 074°01'0 0.0
2018-Sep-15 12:30N 40°46' W 074°01'0 0.0
2018-Sep-15 12:03N 40°46' W 074°01'0 0.1
2018-Sep-15 12:00N 40°46' W 074°01'0 0.0
2018-Sep-15 11:30N 40°46' W 074°01'0 0.0
2018-Sep-15 11:02N 40°46' W 074°01'0 0.0
2018-Sep-15 11:00N 40°46' W 074°01'0 0.0
2018-Sep-15 10:30N 40°46' W 074°01'0 0.0
2018-Sep-15 10:03N 40°46' W 074°01'0 0.0
2018-Sep-15 10:00N 40°46' W 074°01'0 0.0
2018-Sep-15 09:30N 40°46' W 074°01'0 0.0
2018-Sep-15 05:13N 40°46' W 074°01'0 0.0
2018-Sep-15 05:03N 40°46' W 074°01'0 0.0
2018-Sep-14 22:53N 40°46' W 074°01'0 0.0
2018-Sep-14 22:30N 40°46' W 074°01'0 0.0
2018-Sep-14 22:02N 40°46' W 074°01'0 0.0
2018-Sep-14 22:00N 40°46' W 074°01'0 0.0
2018-Sep-14 21:30N 40°46' W 074°01'1 1.6
2018-Sep-14 21:03N 40°46' W 074°00'0 0.4
2018-Sep-14 20:59N 40°46' W 074°00'2 4.3
2018-Sep-14 20:30N 40°48' W 073°60'2 3.5
2018-Sep-14 20:03N 40°46' W 074°01'0 0.0
2018-Sep-14 20:00N 40°46' W 074°01'0 0.0
2018-Sep-14 19:30N 40°46' W 074°01'0 0.0
2018-Sep-14 19:03N 40°46' W 074°01'0 0.0
2018-Sep-14 18:58N 40°46' W 074°01'0 0.2
2018-Sep-14 18:30N 40°46' W 074°01'1 2.5
2018-Sep-14 18:03N 40°45' W 074°01'0 3.1
2018-Sep-14 18:00N 40°45' W 074°01'1 1.6
2018-Sep-14 17:30N 40°46' W 074°00'1 2.1
2018-Sep-14 17:03N 40°45' W 074°01'0 2.4
2018-Sep-14 17:00N 40°45' W 074°01'1 1.7
2018-Sep-14 16:30N 40°46' W 074°00'1 2.1
2018-Sep-14 16:03N 40°45' W 074°01'0 3.5
2018-Sep-14 16:00N 40°45' W 074°01'1 1.5
2018-Sep-14 15:30N 40°46' W 074°00'1 2.1
2018-Sep-14 15:03N 40°45' W 074°01'0 3.4
2018-Sep-14 15:00N 40°45' W 074°01'1 1.6
2018-Sep-14 14:30N 40°46' W 074°00'3 6.3
2018-Sep-14 14:01N 40°43' W 074°01'3 6.2
2018-Sep-14 13:30N 40°46' W 074°01'0 0.3
2018-Sep-14 13:03N 40°46' W 074°01'116.5
2018-Sep-14 13:00N 40°47' W 074°01'4 7.8
2018-Sep-14 12:31N 40°43' W 074°02'1 1.3
2018-Sep-14 12:04N 40°43' W 074°01'123.9
2018-Sep-14 12:01N 40°42' W 074°01'4 7.1
2018-Sep-14 11:30N 40°46' W 074°00'0 0.9
2018-Sep-14 11:03N 40°46' W 074°01'111.2
2018-Sep-14 11:00N 40°47' W 074°01'5 9.4
2018-Sep-14 10:31N 40°42' W 074°01'4 0.4
2018-Sep-13 23:48N 40°46' W 074°01'413.2
2018-Sep-13 23:30N 40°43' W 074°02'0 1.1
2018-Sep-13 23:04N 40°43' W 074°02'0 7.4
2018-Sep-13 23:00N 40°43' W 074°02'0 0.3
2018-Sep-13 22:30N 40°43' W 074°03'1 1.2
2018-Sep-13 22:04N 40°43' W 074°02'1 9.9
2018-Sep-13 22:00N 40°43' W 074°03'0 0.1
2018-Sep-13 21:30N 40°43' W 074°03'1 1.2
2018-Sep-13 21:04N 40°43' W 074°02'110.2
2018-Sep-13 21:00N 40°43' W 074°03'1 2.9
2018-Sep-13 20:31N 40°44' W 074°01'3 5.7
2018-Sep-13 20:03N 40°46' W 074°01'0 0.0
2018-Sep-13 20:00N 40°46' W 074°01'0 0.0
2018-Sep-13 19:30N 40°46' W 074°01'0 0.0
2018-Sep-13 19:03N 40°46' W 074°01'0 0.0
2018-Sep-13 19:00N 40°46' W 074°01'0 0.4
2018-Sep-13 18:30N 40°46' W 074°01'1 2.2
2018-Sep-13 18:04N 40°45' W 074°01'0 0.3
2018-Sep-13 18:00N 40°45' W 074°01'1 1.8
2018-Sep-13 17:30N 40°46' W 074°00'1 2.1
2018-Sep-13 17:03N 40°45' W 074°01'0 2.4
2018-Sep-13 17:00N 40°45' W 074°01'1 1.6
2018-Sep-13 16:30N 40°46' W 074°00'1 2.2
2018-Sep-13 16:03N 40°45' W 074°01'0 5.2
2018-Sep-13 16:00N 40°45' W 074°01'0 0.8
2018-Sep-13 15:27N 40°46' W 074°01'1 1.7
2018-Sep-13 15:03N 40°45' W 074°01'0 0.4
2018-Sep-13 15:00N 40°45' W 074°01'1 1.3
2018-Sep-13 14:04N 40°44' W 074°01'127.8
2018-Sep-13 14:01N 40°43' W 074°01'1 2.8
2018-Sep-13 13:31N 40°44' W 074°01'2 5.1
2018-Sep-13 13:03N 40°46' W 074°00'0 5.3
2018-Sep-13 12:59N 40°47' W 074°01'4 7.9
2018-Sep-13 12:30N 40°43' W 074°01'1 2.2
2018-Sep-13 12:04N 40°44' W 074°01'125.7
2018-Sep-13 12:01N 40°43' W 074°01'3 6.3
2018-Sep-13 11:30N 40°46' W 074°00'0 0.8
2018-Sep-13 11:04N 40°46' W 074°01'112.4
2018-Sep-13 11:00N 40°47' W 074°01'5 9.2
2018-Sep-13 10:30N 40°42' W 074°01'4 0.4
2018-Sep-13 00:29N 40°46' W 074°01'4 8.8
2018-Sep-13 00:03N 40°42' W 074°01'116.7
2018-Sep-13 00:00N 40°42' W 074°00'4 9.0
2018-Sep-12 23:30N 40°47' W 074°01'510.5
2018-Sep-12 23:03N 40°42' W 074°01'129.9
2018-Sep-12 23:01N 40°43' W 074°01'3 5.7
2018-Sep-12 22:30N 40°46' W 074°01'0 0.4
2018-Sep-12 22:03N 40°46' W 074°01'0 0.0
2018-Sep-12 21:59N 40°46' W 074°01'0 0.0
2018-Sep-12 21:29N 40°46' W 074°01'0 0.0
2018-Sep-12 21:03N 40°46' W 074°01'0 0.0
2018-Sep-12 21:00N 40°46' W 074°01'0 0.0
2018-Sep-12 20:31N 40°46' W 074°01'0 0.0
2018-Sep-12 20:03N 40°46' W 074°01'0 0.0
2018-Sep-12 20:00N 40°46' W 074°01'0 0.0
2018-Sep-12 19:30N 40°46' W 074°01'0 0.0
2018-Sep-12 19:03N 40°46' W 074°01'0 0.0
2018-Sep-12 19:00N 40°46' W 074°01'0 0.2
2018-Sep-12 18:30N 40°46' W 074°01'1 2.5
2018-Sep-12 18:03N 40°45' W 074°01'0 2.6
2018-Sep-12 18:00N 40°45' W 074°01'1 1.6
2018-Sep-12 17:30N 40°46' W 074°00'1 2.1
2018-Sep-12 17:03N 40°45' W 074°01'0 6.0
2018-Sep-12 17:00N 40°45' W 074°01'1 1.5
2018-Sep-12 16:30N 40°46' W 074°00'1 2.1
2018-Sep-12 16:03N 40°45' W 074°01'0 4.3
2018-Sep-12 16:00N 40°45' W 074°01'1 1.5
2018-Sep-12 15:30N 40°46' W 074°00'1 2.2
2018-Sep-12 15:03N 40°45' W 074°01'0 2.9
2018-Sep-12 15:00N 40°45' W 074°01'1 1.6
2018-Sep-12 14:30N 40°46' W 074°00'4 7.6
2018-Sep-12 14:01N 40°42' W 074°01'4 7.8
2018-Sep-12 13:30N 40°46' W 074°01'1 1.3
2018-Sep-12 13:02N 40°46' W 074°00'0 6.8
2018-Sep-12 13:00N 40°47' W 074°01'3 6.7
2018-Sep-12 12:31N 40°43' W 074°01'1 3.0
2018-Sep-12 12:03N 40°42' W 074°01'113.2
2018-Sep-12 12:00N 40°42' W 074°00'4 7.7
2018-Sep-12 11:30N 40°46' W 074°00'0 0.9
2018-Sep-12 11:03N 40°46' W 074°01'116.6
2018-Sep-12 11:00N 40°47' W 074°01'5 9.4
2018-Sep-12 10:30N 40°42' W 074°01'4 0.4
2018-Sep-12 00:10N 40°46' W 074°01'0 0.0
2018-Sep-12 00:03N 40°46' W 074°01'0 0.0
2018-Sep-12 00:00N 40°46' W 074°01'0 0.0
2018-Sep-11 23:30N 40°46' W 074°01'0 0.0
2018-Sep-11 23:03N 40°46' W 074°01'0 0.1
2018-Sep-11 22:59N 40°46' W 074°01'0 0.0
2018-Sep-11 22:30N 40°46' W 074°01'0 0.0
2018-Sep-11 22:03N 40°46' W 074°01'0 0.1
2018-Sep-11 22:00N 40°46' W 074°01'0 0.0
2018-Sep-11 21:29N 40°46' W 074°01'0 0.0
2018-Sep-11 21:03N 40°46' W 074°01'0 0.1
2018-Sep-11 21:00N 40°46' W 074°01'0 0.0
2018-Sep-11 20:30N 40°46' W 074°01'0 0.0
2018-Sep-11 20:03N 40°46' W 074°01'0 0.0
2018-Sep-11 20:00N 40°46' W 074°01'0 0.0
2018-Sep-11 19:30N 40°46' W 074°01'0 0.0
2018-Sep-11 19:02N 40°46' W 074°01'0 0.0
2018-Sep-11 19:00N 40°46' W 074°01'1 1.4
2018-Sep-11 18:30N 40°46' W 074°00'1 2.4
2018-Sep-11 18:03N 40°45' W 074°01'0 0.4
2018-Sep-11 18:00N 40°45' W 074°01'1 1.8
2018-Sep-11 17:29N 40°46' W 074°00'0 0.8
2018-Sep-11 17:02N 40°45' W 074°01'010.3
2018-Sep-11 17:00N 40°45' W 074°01'1 1.3
2018-Sep-11 16:30N 40°46' W 074°00'0 0.5
2018-Sep-11 16:03N 40°46' W 074°00'0 0.1
2018-Sep-11 16:00N 40°46' W 074°00'0 0.0
2018-Sep-11 15:30N 40°46' W 074°00'1 2.5
2018-Sep-11 15:03N 40°45' W 074°01'0 0.1
2018-Sep-11 15:00N 40°45' W 074°01'2 1.8
2018-Sep-11 14:03N 40°43' W 074°01'129.9
2018-Sep-11 14:01N 40°42' W 074°01'3 5.1
2018-Sep-11 13:30N 40°45' W 074°01'1 2.3
2018-Sep-11 13:03N 40°46' W 074°01'114.0
2018-Sep-11 13:00N 40°47' W 074°01'3 6.3
2018-Sep-11 12:30N 40°43' W 074°01'1 3.3
2018-Sep-11 12:03N 40°42' W 074°00'0 0.0
2018-Sep-11 12:01N 40°42' W 074°00'1 2.4
2018-Sep-11 11:31N 40°43' W 074°01'2 5.3
2018-Sep-11 11:03N 40°45' W 074°01'113.0
2018-Sep-11 10:58N 40°47' W 074°01'4 9.5
2018-Sep-11 10:31N 40°42' W 074°01'4 0.5
2018-Sep-11 03:00N 40°46' W 074°01'1 1.2
2018-Sep-11 02:29N 40°46' W 074°00'1 2.1
2018-Sep-11 02:03N 40°45' W 074°01'0 4.4
2018-Sep-11 02:00N 40°45' W 074°01'1 1.5
2018-Sep-11 01:30N 40°46' W 074°00'1 2.2
2018-Sep-11 01:03N 40°45' W 074°01'0 4.6
2018-Sep-11 01:00N 40°45' W 074°01'1 1.5
2018-Sep-11 00:30N 40°46' W 074°00'1 2.7
2018-Sep-11 00:03N 40°47' W 074°00'124.3
2018-Sep-11 00:00N 40°46' W 074°00'0 0.0
2018-Sep-10 23:30N 40°46' W 074°00'0 0.0
2018-Sep-10 23:03N 40°46' W 074°00'0 0.2
2018-Sep-10 23:00N 40°46' W 074°00'0 0.0
2018-Sep-10 22:30N 40°46' W 074°00'0 0.7
2018-Sep-10 22:03N 40°46' W 074°00'0 5.8
2018-Sep-10 22:00N 40°46' W 074°00'0 0.0
2018-Sep-10 21:30N 40°46' W 074°00'1 1.1
2018-Sep-10 21:02N 40°46' W 074°00'114.6
2018-Sep-10 21:00N 40°46' W 074°00'0 0.0
2018-Sep-10 20:30N 40°46' W 074°00'0 1.0
2018-Sep-10 20:03N 40°46' W 074°00'0 9.3
2018-Sep-10 20:00N 40°46' W 074°00'1 1.5
2018-Sep-10 19:30N 40°46' W 074°01'0 0.0
2018-Sep-10 19:03N 40°46' W 074°01'0 0.0
2018-Sep-10 18:59N 40°46' W 074°01'0 0.3
2018-Sep-10 18:30N 40°46' W 074°01'1 2.4
2018-Sep-10 18:03N 40°45' W 074°01'0 2.2
2018-Sep-10 18:00N 40°45' W 074°01'1 1.6
2018-Sep-10 17:30N 40°46' W 074°00'1 2.1
2018-Sep-10 17:03N 40°45' W 074°01'0 5.8
2018-Sep-10 17:00N 40°45' W 074°01'1 1.4
2018-Sep-10 16:30N 40°46' W 074°00'1 2.2
2018-Sep-10 16:03N 40°45' W 074°01'0 5.7
2018-Sep-10 16:00N 40°45' W 074°01'1 1.4
2018-Sep-10 15:30N 40°46' W 074°00'1 2.0
2018-Sep-10 15:03N 40°45' W 074°01'0 5.0
2018-Sep-10 15:00N 40°45' W 074°01'1 1.5
2018-Sep-10 14:30N 40°46' W 074°00'4 7.6
2018-Sep-10 14:00N 40°42' W 074°00'2 4.3
2018-Sep-10 13:31N 40°44' W 074°01'2 4.1
2018-Sep-10 13:03N 40°46' W 074°01'113.3
2018-Sep-10 13:00N 40°47' W 074°01'3 6.3
2018-Sep-10 12:30N 40°44' W 074°01'2 3.5
2018-Sep-10 12:03N 40°42' W 074°00'0 0.2
2018-Sep-10 12:01N 40°42' W 074°00'3 6.7
2018-Sep-10 11:30N 40°46' W 074°01'0 0.4
2018-Sep-10 11:03N 40°45' W 074°01'113.0
2018-Sep-10 10:58N 40°47' W 074°01'5 9.9
2018-Sep-10 10:31N 40°42' W 074°01'4 9.5
2018-Sep-10 10:03N 40°46' W 074°01'0 0.0
2018-Sep-10 10:00N 40°46' W 074°01'0 0.0
2018-Sep-10 01:49N 40°46' W 074°01'0 0.0
2018-Sep-10 00:37N 40°46' W 074°01'0 1.1
2018-Sep-10 00:31N 40°46' W 074°01'3 7.5
2018-Sep-10 00:04N 40°43' W 074°01'0 0.0
2018-Sep-10 00:00N 40°43' W 074°01'3 5.5
2018-Sep-09 23:30N 40°46' W 074°00'3 6.5
2018-Sep-09 23:03N 40°43' W 074°01'0 0.1
2018-Sep-09 23:00N 40°43' W 074°01'3 5.5
2018-Sep-09 22:30N 40°46' W 074°00'3 6.4
2018-Sep-09 22:04N 40°43' W 074°01'0 2.6
2018-Sep-09 22:00N 40°43' W 074°01'3 5.5
2018-Sep-09 21:30N 40°46' W 074°00'3 6.5
2018-Sep-09 21:03N 40°43' W 074°01'0 0.1
2018-Sep-09 21:00N 40°43' W 074°01'3 5.8
2018-Sep-09 20:31N 40°46' W 074°00'3 6.4
2018-Sep-09 20:03N 40°43' W 074°01'0 0.1
2018-Sep-09 20:00N 40°43' W 074°01'3 5.6
2018-Sep-09 19:30N 40°46' W 074°00'3 6.2
2018-Sep-09 19:03N 40°43' W 074°01'0 2.3
2018-Sep-09 19:00N 40°43' W 074°01'3 5.7
2018-Sep-09 18:30N 40°46' W 074°00'3 6.4
2018-Sep-09 18:03N 40°43' W 074°01'0 0.0
2018-Sep-09 18:01N 40°43' W 074°01'3 5.5
2018-Sep-09 17:30N 40°46' W 074°00'3 6.3
2018-Sep-09 17:03N 40°43' W 074°01'0 0.0
2018-Sep-09 17:00N 40°43' W 074°01'3 5.6
2018-Sep-09 16:30N 40°46' W 074°00'3 6.2
2018-Sep-09 16:03N 40°43' W 074°01'0 0.0
2018-Sep-09 16:01N 40°43' W 074°01'3 5.6
2018-Sep-09 15:30N 40°46' W 074°00'3 6.3
2018-Sep-09 15:04N 40°43' W 074°01'0 3.9
2018-Sep-09 15:01N 40°43' W 074°01'3 5.3
2018-Sep-09 14:29N 40°46' W 074°00'3 6.0
2018-Sep-09 14:00N 40°43' W 074°01'  
Track history (hours):
 
Tides and Currents Weather Stations Pressure Air Temp Water Temp Dewpoint Dewpoint Depression Visibility Wind Speed Wind Dir Waves Ship Positions

Douglas B.gurian

Owner: Port Imperial Ferry Corporation, Weehawken, NJ. More information available from US FCC via Universal Licensing System and Coast Guard Vessel Documentation Center.

Last reported at 2018-Sep-19 13:03 UTC. Time now 2018-Sep-19 13:06 UTC.
Position N 40°43' W 074°02'.

Length 21 m; draft 2 m.

Type: Passenger vessel. MMSI: 366834170.

Date/timePositionNaut miles runAvg speedWind from/ knotsBaromVisibWave heightAir tempDewpointWater temp
2018-Sep-19 13:03N 40°43' W 074°02'0 9.7
2018-Sep-19 13:00N 40°43' W 074°03'0 0.0
2018-Sep-19 12:31N 40°43' W 074°03'0 1.0
2018-Sep-19 12:04N 40°43' W 074°02'0 9.6
2018-Sep-19 12:01N 40°43' W 074°03'0 0.0
2018-Sep-19 11:30N 40°43' W 074°03'0 1.0
2018-Sep-19 11:03N 40°43' W 074°02'0 9.1
2018-Sep-19 11:01N 40°43' W 074°03'0 0.0
2018-Sep-19 10:30N 40°43' W 074°03'0 0.6
2018-Sep-19 10:03N 40°43' W 074°02'0 5.4
2018-Sep-19 10:00N 40°43' W 074°03'0 0.0
2018-Sep-19 09:30N 40°43' W 074°03'0 0.0
2018-Sep-19 00:04N 40°43' W 074°03'0 0.0
2018-Sep-19 00:00N 40°43' W 074°03'0 0.1
2018-Sep-18 23:30N 40°43' W 074°03'0 1.1
2018-Sep-18 23:03N 40°43' W 074°02'0 0.7
2018-Sep-18 23:01N 40°43' W 074°02'1 1.1
2018-Sep-18 22:30N 40°43' W 074°03'1 1.2
2018-Sep-18 22:04N 40°43' W 074°02'1 8.6
2018-Sep-18 22:00N 40°43' W 074°03'0 0.4
2018-Sep-18 21:30N 40°43' W 074°02'0 0.8
2018-Sep-18 21:04N 40°43' W 074°02'110.0
2018-Sep-18 21:00N 40°43' W 074°03'4 7.4
2018-Sep-18 20:29N 40°46' W 074°01'0 0.0
2018-Sep-18 20:03N 40°46' W 074°01'0 0.1
2018-Sep-18 20:00N 40°46' W 074°01'0 0.0
2018-Sep-18 14:32N 40°46' W 074°01'0 0.0
2018-Sep-18 14:03N 40°46' W 074°01'0 6.2
2018-Sep-18 14:00N 40°46' W 074°01'4 7.3
2018-Sep-18 13:30N 40°43' W 074°03'1 2.8
2018-Sep-18 13:04N 40°42' W 074°01'112.3
2018-Sep-18 13:01N 40°42' W 074°00'0 0.1
2018-Sep-18 12:30N 40°42' W 074°00'1 1.9
2018-Sep-18 12:04N 40°42' W 074°01'116.0
2018-Sep-18 12:00N 40°42' W 074°00'0 0.0
2018-Sep-18 11:31N 40°42' W 074°00'1 2.9
2018-Sep-18 11:04N 40°43' W 074°02'127.8
2018-Sep-18 11:01N 40°44' W 074°01'2 4.8
2018-Sep-18 10:30N 40°46' W 074°01'0 0.0
2018-Sep-17 14:04N 40°46' W 074°01'117.3
2018-Sep-17 14:00N 40°45' W 074°01'3 5.9
2018-Sep-17 13:31N 40°43' W 074°03'2 3.9
2018-Sep-17 13:03N 40°42' W 074°00'0 2.1
2018-Sep-17 13:01N 40°42' W 074°00'0 0.2
2018-Sep-17 12:31N 40°42' W 074°00'1 1.4
2018-Sep-17 12:03N 40°42' W 074°01'112.6
2018-Sep-17 12:01N 40°42' W 074°00'0 0.0
2018-Sep-17 11:30N 40°42' W 074°00'4 9.0
2018-Sep-17 11:03N 40°46' W 074°01'0 0.5
2018-Sep-17 11:00N 40°46' W 074°01'0 0.0
2018-Sep-17 10:28N 40°46' W 074°01'0 0.0
2018-Sep-17 10:04N 40°46' W 074°01'0 0.0
2018-Sep-17 10:00N 40°46' W 074°01'0 0.0
2018-Sep-17 09:30N 40°46' W 074°01'0 0.0
2018-Sep-17 09:03N 40°46' W 074°01'0 0.0
2018-Sep-17 09:00N 40°46' W 074°01'0 0.0
2018-Sep-16 18:26N 40°46' W 074°01'411.1
2018-Sep-16 18:03N 40°42' W 074°00'0 0.6
2018-Sep-16 18:00N 40°42' W 074°00'4 8.4
2018-Sep-16 17:31N 40°46' W 074°01'0 0.0
2018-Sep-16 17:01N 40°46' W 074°01'0 0.0
2018-Sep-16 17:00N 40°46' W 074°01'0 0.0
2018-Sep-15 18:24N 40°46' W 074°01'412.3
2018-Sep-15 18:04N 40°42' W 074°00'0 1.5
2018-Sep-15 18:01N 40°42' W 074°00'4 7.8
2018-Sep-15 17:28N 40°46' W 074°01'0 0.0
2018-Sep-15 17:03N 40°46' W 074°01'0 0.0
2018-Sep-15 17:00N 40°46' W 074°01'0 0.0
2018-Sep-15 16:30N 40°46' W 074°01'0 0.0
2018-Sep-15 16:03N 40°46' W 074°01'0 0.0
2018-Sep-15 16:00N 40°46' W 074°01'0 0.0
2018-Sep-15 15:30N 40°46' W 074°01'0 0.0
2018-Sep-15 15:03N 40°46' W 074°01'0 0.0
2018-Sep-15 14:30N 40°46' W 074°01'0 0.0
2018-Sep-15 14:00N 40°46' W 074°01'0 0.0
2018-Sep-15 13:29N 40°46' W 074°01'0 0.0
2018-Sep-15 13:03N 40°46' W 074°01'0 0.1
2018-Sep-15 13:00N 40°46' W 074°01'0 0.0
2018-Sep-15 12:30N 40°46' W 074°01'0 0.0
2018-Sep-15 12:03N 40°46' W 074°01'0 0.1
2018-Sep-15 12:00N 40°46' W 074°01'0 0.0
2018-Sep-15 11:30N 40°46' W 074°01'0 0.0
2018-Sep-15 11:02N 40°46' W 074°01'0 0.0
2018-Sep-15 11:00N 40°46' W 074°01'0 0.0
2018-Sep-15 10:30N 40°46' W 074°01'0 0.0
2018-Sep-15 10:03N 40°46' W 074°01'0 0.0
2018-Sep-15 10:00N 40°46' W 074°01'0 0.0
2018-Sep-15 09:30N 40°46' W 074°01'0 0.0
2018-Sep-15 05:13N 40°46' W 074°01'0 0.0
2018-Sep-15 05:03N 40°46' W 074°01'0 0.0
2018-Sep-14 22:53N 40°46' W 074°01'0 0.0
2018-Sep-14 22:30N 40°46' W 074°01'0 0.0
2018-Sep-14 22:02N 40°46' W 074°01'0 0.0
2018-Sep-14 22:00N 40°46' W 074°01'0 0.0
2018-Sep-14 21:30N 40°46' W 074°01'1 1.6
2018-Sep-14 21:03N 40°46' W 074°00'0 0.4
2018-Sep-14 20:59N 40°46' W 074°00'2 4.3
2018-Sep-14 20:30N 40°48' W 073°60'2 3.5
2018-Sep-14 20:03N 40°46' W 074°01'0 0.0
2018-Sep-14 20:00N 40°46' W 074°01'0 0.0
2018-Sep-14 19:30N 40°46' W 074°01'0 0.0
2018-Sep-14 19:03N 40°46' W 074°01'0 0.0
2018-Sep-14 18:58N 40°46' W 074°01'0 0.2
2018-Sep-14 18:30N 40°46' W 074°01'1 2.5
2018-Sep-14 18:03N 40°45' W 074°01'0 3.1
2018-Sep-14 18:00N 40°45' W 074°01'1 1.6
2018-Sep-14 17:30N 40°46' W 074°00'1 2.1
2018-Sep-14 17:03N 40°45' W 074°01'0 2.4
2018-Sep-14 17:00N 40°45' W 074°01'1 1.7
2018-Sep-14 16:30N 40°46' W 074°00'1 2.1
2018-Sep-14 16:03N 40°45' W 074°01'0 3.5
2018-Sep-14 16:00N 40°45' W 074°01'1 1.5
2018-Sep-14 15:30N 40°46' W 074°00'1 2.1
2018-Sep-14 15:03N 40°45' W 074°01'0 3.4
2018-Sep-14 15:00N 40°45' W 074°01'1 1.6
2018-Sep-14 14:30N 40°46' W 074°00'3 6.3
2018-Sep-14 14:01N 40°43' W 074°01'3 6.2
2018-Sep-14 13:30N 40°46' W 074°01'0 0.3
2018-Sep-14 13:03N 40°46' W 074°01'116.5
2018-Sep-14 13:00N 40°47' W 074°01'4 7.8
2018-Sep-14 12:31N 40°43' W 074°02'1 1.3
2018-Sep-14 12:04N 40°43' W 074°01'123.9
2018-Sep-14 12:01N 40°42' W 074°01'4 7.1
2018-Sep-14 11:30N 40°46' W 074°00'0 0.9
2018-Sep-14 11:03N 40°46' W 074°01'111.2
2018-Sep-14 11:00N 40°47' W 074°01'5 9.4
2018-Sep-14 10:31N 40°42' W 074°01'4 0.4
2018-Sep-13 23:48N 40°46' W 074°01'413.2
2018-Sep-13 23:30N 40°43' W 074°02'0 1.1
2018-Sep-13 23:04N 40°43' W 074°02'0 7.4
2018-Sep-13 23:00N 40°43' W 074°02'0 0.3
2018-Sep-13 22:30N 40°43' W 074°03'1 1.2
2018-Sep-13 22:04N 40°43' W 074°02'1 9.9
2018-Sep-13 22:00N 40°43' W 074°03'0 0.1
2018-Sep-13 21:30N 40°43' W 074°03'1 1.2
2018-Sep-13 21:04N 40°43' W 074°02'110.2
2018-Sep-13 21:00N 40°43' W 074°03'1 2.9
2018-Sep-13 20:31N 40°44' W 074°01'3 5.7
2018-Sep-13 20:03N 40°46' W 074°01'0 0.0
2018-Sep-13 20:00N 40°46' W 074°01'0 0.0
2018-Sep-13 19:30N 40°46' W 074°01'0 0.0
2018-Sep-13 19:03N 40°46' W 074°01'0 0.0
2018-Sep-13 19:00N 40°46' W 074°01'0 0.4
2018-Sep-13 18:30N 40°46' W 074°01'1 2.2
2018-Sep-13 18:04N 40°45' W 074°01'0 0.3
2018-Sep-13 18:00N 40°45' W 074°01'1 1.8
2018-Sep-13 17:30N 40°46' W 074°00'1 2.1
2018-Sep-13 17:03N 40°45' W 074°01'0 2.4
2018-Sep-13 17:00N 40°45' W 074°01'1 1.6
2018-Sep-13 16:30N 40°46' W 074°00'1 2.2
2018-Sep-13 16:03N 40°45' W 074°01'0 5.2
2018-Sep-13 16:00N 40°45' W 074°01'0 0.8
2018-Sep-13 15:27N 40°46' W 074°01'1 1.7
2018-Sep-13 15:03N 40°45' W 074°01'0 0.4
2018-Sep-13 15:00N 40°45' W 074°01'1 1.3
2018-Sep-13 14:04N 40°44' W 074°01'127.8
2018-Sep-13 14:01N 40°43' W 074°01'1 2.8
2018-Sep-13 13:31N 40°44' W 074°01'2 5.1
2018-Sep-13 13:03N 40°46' W 074°00'0 5.3
2018-Sep-13 12:59N 40°47' W 074°01'4 7.9
2018-Sep-13 12:30N 40°43' W 074°01'1 2.2
2018-Sep-13 12:04N 40°44' W 074°01'125.7
2018-Sep-13 12:01N 40°43' W 074°01'3 6.3
2018-Sep-13 11:30N 40°46' W 074°00'0 0.8
2018-Sep-13 11:04N 40°46' W 074°01'112.4
2018-Sep-13 11:00N 40°47' W 074°01'5 9.2
2018-Sep-13 10:30N 40°42' W 074°01'4 0.4
2018-Sep-13 00:29N 40°46' W 074°01'4 8.8
2018-Sep-13 00:03N 40°42' W 074°01'116.7
2018-Sep-13 00:00N 40°42' W 074°00'4 9.0
2018-Sep-12 23:30N 40°47' W 074°01'510.5
2018-Sep-12 23:03N 40°42' W 074°01'129.9
2018-Sep-12 23:01N 40°43' W 074°01'3 5.7
2018-Sep-12 22:30N 40°46' W 074°01'0 0.4
2018-Sep-12 22:03N 40°46' W 074°01'0 0.0
2018-Sep-12 21:59N 40°46' W 074°01'0 0.0
2018-Sep-12 21:29N 40°46' W 074°01'0 0.0
2018-Sep-12 21:03N 40°46' W 074°01'0 0.0
2018-Sep-12 21:00N 40°46' W 074°01'0 0.0
2018-Sep-12 20:31N 40°46' W 074°01'0 0.0
2018-Sep-12 20:03N 40°46' W 074°01'0 0.0
2018-Sep-12 20:00N 40°46' W 074°01'0 0.0
2018-Sep-12 19:30N 40°46' W 074°01'0 0.0
2018-Sep-12 19:03N 40°46' W 074°01'0 0.0
2018-Sep-12 19:00N 40°46' W 074°01'0 0.2
2018-Sep-12 18:30N 40°46' W 074°01'1 2.5
2018-Sep-12 18:03N 40°45' W 074°01'0 2.6
2018-Sep-12 18:00N 40°45' W 074°01'1 1.6
2018-Sep-12 17:30N 40°46' W 074°00'1 2.1
2018-Sep-12 17:03N 40°45' W 074°01'0 6.0
2018-Sep-12 17:00N 40°45' W 074°01'1 1.5
2018-Sep-12 16:30N 40°46' W 074°00'1 2.1
2018-Sep-12 16:03N 40°45' W 074°01'0 4.3
2018-Sep-12 16:00N 40°45' W 074°01'1 1.5
2018-Sep-12 15:30N 40°46' W 074°00'1 2.2
2018-Sep-12 15:03N 40°45' W 074°01'0 2.9
2018-Sep-12 15:00N 40°45' W 074°01'1 1.6
2018-Sep-12 14:30N 40°46' W 074°00'4 7.6
2018-Sep-12 14:01N 40°42' W 074°01'4 7.8
2018-Sep-12 13:30N 40°46' W 074°01'1 1.3
2018-Sep-12 13:02N 40°46' W 074°00'0 6.8
2018-Sep-12 13:00N 40°47' W 074°01'3 6.7
2018-Sep-12 12:31N 40°43' W 074°01'1 3.0
2018-Sep-12 12:03N 40°42' W 074°01'113.2
2018-Sep-12 12:00N 40°42' W 074°00'4 7.7
2018-Sep-12 11:30N 40°46' W 074°00'0 0.9
2018-Sep-12 11:03N 40°46' W 074°01'116.6
2018-Sep-12 11:00N 40°47' W 074°01'5 9.4
2018-Sep-12 10:30N 40°42' W 074°01'4 0.4
2018-Sep-12 00:10N 40°46' W 074°01'0 0.0
2018-Sep-12 00:03N 40°46' W 074°01'0 0.0
2018-Sep-12 00:00N 40°46' W 074°01'0 0.0
2018-Sep-11 23:30N 40°46' W 074°01'0 0.0
2018-Sep-11 23:03N 40°46' W 074°01'0 0.1
2018-Sep-11 22:59N 40°46' W 074°01'0 0.0
2018-Sep-11 22:30N 40°46' W 074°01'0 0.0
2018-Sep-11 22:03N 40°46' W 074°01'0 0.1
2018-Sep-11 22:00N 40°46' W 074°01'0 0.0
2018-Sep-11 21:29N 40°46' W 074°01'0 0.0
2018-Sep-11 21:03N 40°46' W 074°01'0 0.1
2018-Sep-11 21:00N 40°46' W 074°01'0 0.0
2018-Sep-11 20:30N 40°46' W 074°01'0 0.0
2018-Sep-11 20:03N 40°46' W 074°01'0 0.0
2018-Sep-11 20:00N 40°46' W 074°01'0 0.0
2018-Sep-11 19:30N 40°46' W 074°01'0 0.0
2018-Sep-11 19:02N 40°46' W 074°01'0 0.0
2018-Sep-11 19:00N 40°46' W 074°01'1 1.4
2018-Sep-11 18:30N 40°46' W 074°00'1 2.4
2018-Sep-11 18:03N 40°45' W 074°01'0 0.4
2018-Sep-11 18:00N 40°45' W 074°01'1 1.8
2018-Sep-11 17:29N 40°46' W 074°00'0 0.8
2018-Sep-11 17:02N 40°45' W 074°01'010.3
2018-Sep-11 17:00N 40°45' W 074°01'1 1.3
2018-Sep-11 16:30N 40°46' W 074°00'0 0.5
2018-Sep-11 16:03N 40°46' W 074°00'0 0.1
2018-Sep-11 16:00N 40°46' W 074°00'0 0.0
2018-Sep-11 15:30N 40°46' W 074°00'1 2.5
2018-Sep-11 15:03N 40°45' W 074°01'0 0.1
2018-Sep-11 15:00N 40°45' W 074°01'2 1.8
2018-Sep-11 14:03N 40°43' W 074°01'129.9
2018-Sep-11 14:01N 40°42' W 074°01'3 5.1
2018-Sep-11 13:30N 40°45' W 074°01'1 2.3
2018-Sep-11 13:03N 40°46' W 074°01'114.0
2018-Sep-11 13:00N 40°47' W 074°01'3 6.3
2018-Sep-11 12:30N 40°43' W 074°01'1 3.3
2018-Sep-11 12:03N 40°42' W 074°00'0 0.0
2018-Sep-11 12:01N 40°42' W 074°00'1 2.4
2018-Sep-11 11:31N 40°43' W 074°01'2 5.3
2018-Sep-11 11:03N 40°45' W 074°01'113.0
2018-Sep-11 10:58N 40°47' W 074°01'4 9.5
2018-Sep-11 10:31N 40°42' W 074°01'4 0.5
2018-Sep-11 03:00N 40°46' W 074°01'1 1.2
2018-Sep-11 02:29N 40°46' W 074°00'1 2.1
2018-Sep-11 02:03N 40°45' W 074°01'0 4.4
2018-Sep-11 02:00N 40°45' W 074°01'1 1.5
2018-Sep-11 01:30N 40°46' W 074°00'1 2.2
2018-Sep-11 01:03N 40°45' W 074°01'0 4.6
2018-Sep-11 01:00N 40°45' W 074°01'1 1.5
2018-Sep-11 00:30N 40°46' W 074°00'1 2.7
2018-Sep-11 00:03N 40°47' W 074°00'124.3
2018-Sep-11 00:00N 40°46' W 074°00'0 0.0
2018-Sep-10 23:30N 40°46' W 074°00'0 0.0
2018-Sep-10 23:03N 40°46' W 074°00'0 0.2
2018-Sep-10 23:00N 40°46' W 074°00'0 0.0
2018-Sep-10 22:30N 40°46' W 074°00'0 0.7
2018-Sep-10 22:03N 40°46' W 074°00'0 5.8
2018-Sep-10 22:00N 40°46' W 074°00'0 0.0
2018-Sep-10 21:30N 40°46' W 074°00'1 1.1
2018-Sep-10 21:02N 40°46' W 074°00'114.6
2018-Sep-10 21:00N 40°46' W 074°00'0 0.0
2018-Sep-10 20:30N 40°46' W 074°00'0 1.0
2018-Sep-10 20:03N 40°46' W 074°00'0 9.3
2018-Sep-10 20:00N 40°46' W 074°00'1 1.5
2018-Sep-10 19:30N 40°46' W 074°01'0 0.0
2018-Sep-10 19:03N 40°46' W 074°01'0 0.0
2018-Sep-10 18:59N 40°46' W 074°01'0 0.3
2018-Sep-10 18:30N 40°46' W 074°01'1 2.4
2018-Sep-10 18:03N 40°45' W 074°01'0 2.2
2018-Sep-10 18:00N 40°45' W 074°01'1 1.6
2018-Sep-10 17:30N 40°46' W 074°00'1 2.1
2018-Sep-10 17:03N 40°45' W 074°01'0 5.8
2018-Sep-10 17:00N 40°45' W 074°01'1 1.4
2018-Sep-10 16:30N 40°46' W 074°00'1 2.2
2018-Sep-10 16:03N 40°45' W 074°01'0 5.7
2018-Sep-10 16:00N 40°45' W 074°01'1 1.4
2018-Sep-10 15:30N 40°46' W 074°00'1 2.0
2018-Sep-10 15:03N 40°45' W 074°01'0 5.0
2018-Sep-10 15:00N 40°45' W 074°01'1 1.5
2018-Sep-10 14:30N 40°46' W 074°00'4 7.6
2018-Sep-10 14:00N 40°42' W 074°00'2 4.3
2018-Sep-10 13:31N 40°44' W 074°01'2 4.1
2018-Sep-10 13:03N 40°46' W 074°01'113.3
2018-Sep-10 13:00N 40°47' W 074°01'3 6.3
2018-Sep-10 12:30N 40°44' W 074°01'2 3.5
2018-Sep-10 12:03N 40°42' W 074°00'0 0.2
2018-Sep-10 12:01N 40°42' W 074°00'3 6.7
2018-Sep-10 11:30N 40°46' W 074°01'0 0.4
2018-Sep-10 11:03N 40°45' W 074°01'113.0
2018-Sep-10 10:58N 40°47' W 074°01'5 9.9
2018-Sep-10 10:31N 40°42' W 074°01'4 9.5
2018-Sep-10 10:03N 40°46' W 074°01'0 0.0
2018-Sep-10 10:00N 40°46' W 074°01'0 0.0
2018-Sep-10 01:49N 40°46' W 074°01'0 0.0
2018-Sep-10 00:37N 40°46' W 074°01'0 1.1
2018-Sep-10 00:31N 40°46' W 074°01'3 7.5
2018-Sep-10 00:04N 40°43' W 074°01'0 0.0
2018-Sep-10 00:00N 40°43' W 074°01'3 5.5
2018-Sep-09 23:30N 40°46' W 074°00'3 6.5
2018-Sep-09 23:03N 40°43' W 074°01'0 0.1
2018-Sep-09 23:00N 40°43' W 074°01'3 5.5
2018-Sep-09 22:30N 40°46' W 074°00'3 6.4
2018-Sep-09 22:04N 40°43' W 074°01'0 2.6
2018-Sep-09 22:00N 40°43' W 074°01'3 5.5
2018-Sep-09 21:30N 40°46' W 074°00'3 6.5
2018-Sep-09 21:03N 40°43' W 074°01'0 0.1
2018-Sep-09 21:00N 40°43' W 074°01'3 5.8
2018-Sep-09 20:31N 40°46' W 074°00'3 6.4
2018-Sep-09 20:03N 40°43' W 074°01'0 0.1
2018-Sep-09 20:00N 40°43' W 074°01'3 5.6
2018-Sep-09 19:30N 40°46' W 074°00'3 6.2
2018-Sep-09 19:03N 40°43' W 074°01'0 2.3
2018-Sep-09 19:00N 40°43' W 074°01'3 5.7
2018-Sep-09 18:30N 40°46' W 074°00'3 6.4
2018-Sep-09 18:03N 40°43' W 074°01'0 0.0
2018-Sep-09 18:01N 40°43' W 074°01'3 5.5
2018-Sep-09 17:30N 40°46' W 074°00'3 6.3
2018-Sep-09 17:03N 40°43' W 074°01'0 0.0
2018-Sep-09 17:00N 40°43' W 074°01'3 5.6
2018-Sep-09 16:30N 40°46' W 074°00'3 6.2
2018-Sep-09 16:03N 40°43' W 074°01'0 0.0
2018-Sep-09 16:01N 40°43' W 074°01'3 5.6
2018-Sep-09 15:30N 40°46' W 074°00'3 6.3
2018-Sep-09 15:04N 40°43' W 074°01'0 3.9
2018-Sep-09 15:01N 40°43' W 074°01'3 5.3
2018-Sep-09 14:29N 40°46' W 074°00'3 6.0
2018-Sep-09 14:00N 40°43' W 074°01'  

Dump ship's entire track history